Terminal Aerodrome Forecast
Issued by NWS

Home | Current Version | Previous Version | Text Only | Print | Product List | Glossary Off
Versions: 1 2 3 4 5 6 7 8 9 10 11 12 13 14 15 16 17 18 19 20 21 22

000
FTUS43 KABR 221300 AAA
TAFMBG
TAF AMD
KMBG 221324Z 2213/2312 00000KT 4SM BR OVC003
     FM221500 33008KT 3SM -RASN BR OVC006
     FM221800 33010KT 5SM -SN BR OVC004
     FM230000 34012KT 1 1/2SM -SN BLSN OVC002=

USA.gov is the U.S. government's official web portal to all federal, state and local government web resources and services.